sensor_id;sensor_type;location;lat;lon;timestamp;pressure;altitude;pressure_sealevel;temperature;humidity
76074;BME280;64776;42.636;24.358;2023-10-09T00:00:55;90552.63;;;14.19;64.11
76074;BME280;64776;42.636;24.358;2023-10-09T00:03:57;90547.50;;;14.15;64.12
76074;BME280;64776;42.636;24.358;2023-10-09T00:06:58;90540.41;;;14.12;63.85
76074;BME280;64776;42.636;24.358;2023-10-09T00:09:59;90537.97;;;14.09;63.85
76074;BME280;64776;42.636;24.358;2023-10-09T00:12:59;90554.78;;;14.04;64.17
76074;BME280;64776;42.636;24.358;2023-10-09T00:16:04;90539.34;;;13.93;64.76
76074;BME280;64776;42.636;24.358;2023-10-09T00:19:07;90546.88;;;13.83;64.47
76074;BME280;64776;42.636;24.358;2023-10-09T00:22:08;90543.44;;;13.72;64.94
76074;BME280;64776;42.636;24.358;2023-10-09T00:25:08;90532.91;;;13.68;64.08
76074;BME280;64776;42.636;24.358;2023-10-09T00:28:09;90544.09;;;13.56;64.88
76074;BME280;64776;42.636;24.358;2023-10-09T00:31:10;90538.94;;;13.52;64.87
76074;BME280;64776;42.636;24.358;2023-10-09T00:34:12;90537.47;;;13.51;65.07
76074;BME280;64776;42.636;24.358;2023-10-09T00:37:13;90534.75;;;13.46;65.04
76074;BME280;64776;42.636;24.358;2023-10-09T00:40:14;90531.31;;;13.40;65.08
76074;BME280;64776;42.636;24.358;2023-10-09T00:43:15;90542.25;;;13.36;65.14
76074;BME280;64776;42.636;24.358;2023-10-09T00:46:16;90533.44;;;13.25;65.07
76074;BME280;64776;42.636;24.358;2023-10-09T00:49:19;90528.00;;;13.19;65.48
76074;BME280;64776;42.636;24.358;2023-10-09T00:52:20;90534.34;;;13.16;65.74
76074;BME280;64776;42.636;24.358;2023-10-09T00:55:21;90539.94;;;13.13;65.81
76074;BME280;64776;42.636;24.358;2023-10-09T00:58:22;90539.38;;;13.08;66.17
76074;BME280;64776;42.636;24.358;2023-10-09T01:01:23;90531.78;;;13.01;66.66
76074;BME280;64776;42.636;24.358;2023-10-09T01:04:25;90537.56;;;12.94;66.58
76074;BME280;64776;42.636;24.358;2023-10-09T01:07:26;90542.13;;;12.88;67.00
76074;BME280;64776;42.636;24.358;2023-10-09T01:10:27;90549.63;;;12.79;67.74
76074;BME280;64776;42.636;24.358;2023-10-09T01:13:28;90567.06;;;12.69;68.30
76074;BME280;64776;42.636;24.358;2023-10-09T01:16:29;90565.06;;;12.64;68.66
76074;BME280;64776;42.636;24.358;2023-10-09T01:19:31;90576.47;;;12.59;69.11
76074;BME280;64776;42.636;24.358;2023-10-09T01:22:31;90588.84;;;12.56;69.54
76074;BME280;64776;42.636;24.358;2023-10-09T01:25:34;90591.66;;;12.47;70.14
76074;BME280;64776;42.636;24.358;2023-10-09T01:28:34;90592.88;;;12.46;69.76
76074;BME280;64776;42.636;24.358;2023-10-09T01:31:35;90602.13;;;12.25;70.84
76074;BME280;64776;42.636;24.358;2023-10-09T01:34:36;90585.03;;;12.17;69.93
76074;BME280;64776;42.636;24.358;2023-10-09T01:37:37;90593.97;;;12.14;69.42
76074;BME280;64776;42.636;24.358;2023-10-09T01:40:39;90602.47;;;12.12;68.25
76074;BME280;64776;42.636;24.358;2023-10-09T01:43:40;90600.53;;;12.13;67.55
76074;BME280;64776;42.636;24.358;2023-10-09T01:46:40;90600.50;;;12.07;67.51
76074;BME280;64776;42.636;24.358;2023-10-09T01:49:41;90606.75;;;12.04;67.79
76074;BME280;64776;42.636;24.358;2023-10-09T01:52:42;90619.53;;;11.95;67.71
76074;BME280;64776;42.636;24.358;2023-10-09T01:55:44;90637.72;;;11.91;67.86
76074;BME280;64776;42.636;24.358;2023-10-09T01:58:45;90638.00;;;11.93;67.73
76074;BME280;64776;42.636;24.358;2023-10-09T02:01:46;90649.53;;;11.84;67.83
76074;BME280;64776;42.636;24.358;2023-10-09T02:04:46;90652.97;;;11.85;67.77
76074;BME280;64776;42.636;24.358;2023-10-09T02:07:47;90646.88;;;11.84;67.68
76074;BME280;64776;42.636;24.358;2023-10-09T02:10:50;90654.25;;;11.75;67.63
76074;BME280;64776;42.636;24.358;2023-10-09T02:13:51;90650.78;;;11.69;68.39
76074;BME280;64776;42.636;24.358;2023-10-09T02:16:51;90655.94;;;11.58;68.97
76074;BME280;64776;42.636;24.358;2023-10-09T02:19:52;90654.75;;;11.44;68.92
76074;BME280;64776;42.636;24.358;2023-10-09T02:22:53;90650.00;;;11.33;69.69
76074;BME280;64776;42.636;24.358;2023-10-09T02:25:57;90655.25;;;11.28;70.21
76074;BME280;64776;42.636;24.358;2023-10-09T02:28:58;90667.97;;;11.18;70.57
76074;BME280;64776;42.636;24.358;2023-10-09T02:31:58;90678.13;;;11.14;69.54
76074;BME280;64776;42.636;24.358;2023-10-09T02:35:01;90689.72;;;11.11;69.21
76074;BME280;64776;42.636;24.358;2023-10-09T02:38:01;90682.91;;;10.96;69.34
76074;BME280;64776;42.636;24.358;2023-10-09T02:41:05;90672.97;;;10.82;70.47
76074;BME280;64776;42.636;24.358;2023-10-09T02:44:06;90661.72;;;10.78;70.84
76074;BME280;64776;42.636;24.358;2023-10-09T02:47:06;90656.94;;;10.67;70.95
76074;BME280;64776;42.636;24.358;2023-10-09T02:50:08;90642.19;;;10.57;70.65
76074;BME280;64776;42.636;24.358;2023-10-09T02:53:09;90626.34;;;10.53;70.80
76074;BME280;64776;42.636;24.358;2023-10-09T02:56:11;90634.25;;;10.48;70.61
76074;BME280;64776;42.636;24.358;2023-10-09T02:59:11;90639.22;;;10.40;70.79
76074;BME280;64776;42.636;24.358;2023-10-09T03:02:12;90640.31;;;10.34;70.98
76074;BME280;64776;42.636;24.358;2023-10-09T03:05:13;90639.56;;;10.33;70.97
76074;BME280;64776;42.636;24.358;2023-10-09T03:08:14;90639.75;;;10.30;70.78
76074;BME280;64776;42.636;24.358;2023-10-09T03:11:16;90644.25;;;10.24;69.85
76074;BME280;64776;42.636;24.358;2023-10-09T03:14:17;90645.25;;;10.26;69.94
76074;BME280;64776;42.636;24.358;2023-10-09T03:17:17;90640.47;;;10.16;70.46
76074;BME280;64776;42.636;24.358;2023-10-09T03:20:18;90660.94;;;10.10;70.98
76074;BME280;64776;42.636;24.358;2023-10-09T03:23:19;90670.56;;;10.07;70.83
76074;BME280;64776;42.636;24.358;2023-10-09T03:26:21;90678.09;;;10.09;70.56
76074;BME280;64776;42.636;24.358;2023-10-09T03:29:22;90678.09;;;10.09;70.65
76074;BME280;64776;42.636;24.358;2023-10-09T03:32:23;90681.56;;;10.00;71.11
76074;BME280;64776;42.636;24.358;2023-10-09T03:35:24;90679.41;;;9.90;70.89
76074;BME280;64776;42.636;24.358;2023-10-09T03:38:24;90682.41;;;9.82;71.18
76074;BME280;64776;42.636;24.358;2023-10-09T03:41:27;90674.63;;;9.70;71.83
76074;BME280;64776;42.636;24.358;2023-10-09T03:44:27;90680.75;;;9.61;71.66
76074;BME280;64776;42.636;24.358;2023-10-09T03:47:28;90671.44;;;9.57;71.79
76074;BME280;64776;42.636;24.358;2023-10-09T03:50:29;90680.78;;;9.52;72.63
76074;BME280;64776;42.636;24.358;2023-10-09T03:53:30;90685.03;;;9.59;70.84
76074;BME280;64776;42.636;24.358;2023-10-09T03:56:32;90686.38;;;9.54;71.58
76074;BME280;64776;42.636;24.358;2023-10-09T03:59:33;90687.31;;;9.51;71.57
76074;BME280;64776;42.636;24.358;2023-10-09T04:02:33;90695.00;;;9.49;70.62
76074;BME280;64776;42.636;24.358;2023-10-09T04:05:34;90719.59;;;9.44;71.16
76074;BME280;64776;42.636;24.358;2023-10-09T04:08:35;90713.56;;;9.35;71.64
76074;BME280;64776;42.636;24.358;2023-10-09T04:11:37;90710.44;;;9.36;70.94
76074;BME280;64776;42.636;24.358;2023-10-09T04:14:38;90722.59;;;9.37;69.14
76074;BME280;64776;42.636;24.358;2023-10-09T04:17:39;90724.97;;;9.35;68.53
76074;BME280;64776;42.636;24.358;2023-10-09T04:20:40;90733.22;;;9.37;69.75
76074;BME280;64776;42.636;24.358;2023-10-09T04:23:41;90731.16;;;9.41;68.81
76074;BME280;64776;42.636;24.358;2023-10-09T04:26:44;90732.16;;;9.44;67.66
76074;BME280;64776;42.636;24.358;2023-10-09T04:29:45;90737.06;;;9.45;67.41
76074;BME280;64776;42.636;24.358;2023-10-09T04:32:46;90746.66;;;9.52;67.50
76074;BME280;64776;42.636;24.358;2023-10-09T04:35:46;90753.53;;;9.67;67.25
76074;BME280;64776;42.636;24.358;2023-10-09T04:38:47;90760.97;;;9.63;68.06
76074;BME280;64776;42.636;24.358;2023-10-09T04:41:49;90764.78;;;9.62;68.44
76074;BME280;64776;42.636;24.358;2023-10-09T04:44:50;90760.94;;;9.72;66.76
76074;BME280;64776;42.636;24.358;2023-10-09T04:47:51;90761.91;;;9.42;68.88
76074;BME280;64776;42.636;24.358;2023-10-09T04:50:52;90759.50;;;9.53;68.46
76074;BME280;64776;42.636;24.358;2023-10-09T04:53:53;90765.13;;;9.55;67.80
76074;BME280;64776;42.636;24.358;2023-10-09T04:56:55;90755.22;;;9.56;67.37
76074;BME280;64776;42.636;24.358;2023-10-09T04:59:56;90758.28;;;9.63;66.18
76074;BME280;64776;42.636;24.358;2023-10-09T05:02:58;90762.47;;;9.55;66.38
76074;BME280;64776;42.636;24.358;2023-10-09T05:05:58;90762.13;;;9.62;64.33
76074;BME280;64776;42.636;24.358;2023-10-09T05:08:59;90758.59;;;9.56;66.40
76074;BME280;64776;42.636;24.358;2023-10-09T05:12:01;90768.38;;;9.50;64.43
76074;BME280;64776;42.636;24.358;2023-10-09T05:15:03;90767.09;;;9.37;64.45
76074;BME280;64776;42.636;24.358;2023-10-09T05:18:04;90774.63;;;9.47;64.37
76074;BME280;64776;42.636;24.358;2023-10-09T05:21:05;90772.53;;;9.51;63.89
76074;BME280;64776;42.636;24.358;2023-10-09T05:24:06;90777.59;;;9.49;64.38
76074;BME280;64776;42.636;24.358;2023-10-09T05:27:09;90774.63;;;9.47;63.60
76074;BME280;64776;42.636;24.358;2023-10-09T05:30:10;90788.25;;;9.40;63.09
76074;BME280;64776;42.636;24.358;2023-10-09T05:33:11;90794.03;;;9.30;63.12
76074;BME280;64776;42.636;24.358;2023-10-09T05:36:12;90809.59;;;9.31;61.93
76074;BME280;64776;42.636;24.358;2023-10-09T05:39:13;90810.47;;;9.37;60.99
76074;BME280;64776;42.636;24.358;2023-10-09T05:42:15;90815.50;;;9.35;61.77
76074;BME280;64776;42.636;24.358;2023-10-09T05:45:16;90815.41;;;9.62;61.31
76074;BME280;64776;42.636;24.358;2023-10-09T05:48:18;90821.34;;;9.66;59.61
76074;BME280;64776;42.636;24.358;2023-10-09T05:51:20;90828.44;;;9.69;59.76
76074;BME280;64776;42.636;24.358;2023-10-09T05:54:20;90836.13;;;9.76;59.24
76074;BME280;64776;42.636;24.358;2023-10-09T05:57:22;90845.41;;;9.81;59.31
76074;BME280;64776;42.636;24.358;2023-10-09T06:00:23;90843.03;;;9.83;58.31
76074;BME280;64776;42.636;24.358;2023-10-09T06:03:24;90843.88;;;9.98;57.67
76074;BME280;64776;42.636;24.358;2023-10-09T06:06:25;90846.38;;;10.02;57.38
76074;BME280;64776;42.636;24.358;2023-10-09T06:09:26;90856.75;;;10.00;57.53
76074;BME280;64776;42.636;24.358;2023-10-09T06:12:28;90866.81;;;10.05;57.25
76074;BME280;64776;42.636;24.358;2023-10-09T06:15:31;90875.47;;;9.91;57.10
76074;BME280;64776;42.636;24.358;2023-10-09T06:18:44;90882.97;;;10.10;56.49
76074;BME280;64776;42.636;24.358;2023-10-09T06:21:45;90873.53;;;10.33;56.28
76074;BME280;64776;42.636;24.358;2023-10-09T06:24:46;90881.34;;;10.45;55.48
76074;BME280;64776;42.636;24.358;2023-10-09T06:27:48;90887.53;;;10.51;56.65
76074;BME280;64776;42.636;24.358;2023-10-09T06:30:49;90884.38;;;10.62;56.12
76074;BME280;64776;42.636;24.358;2023-10-09T06:33:50;90890.28;;;10.66;56.44
76074;BME280;64776;42.636;24.358;2023-10-09T06:36:51;90892.16;;;10.75;56.74
76074;BME280;64776;42.636;24.358;2023-10-09T06:40:02;90889.03;;;10.76;53.87
76074;BME280;64776;42.636;24.358;2023-10-09T06:43:12;90890.34;;;10.81;53.04
76074;BME280;64776;42.636;24.358;2023-10-09T06:46:15;90891.50;;;10.89;53.06
76074;BME280;64776;42.636;24.358;2023-10-09T06:49:16;90891.66;;;10.85;54.04
76074;BME280;64776;42.636;24.358;2023-10-09T06:52:19;90892.06;;;10.93;52.69
76074;BME280;64776;42.636;24.358;2023-10-09T06:55:20;90887.50;;;11.08;51.70
76074;BME280;64776;42.636;24.358;2023-10-09T06:58:22;90881.47;;;11.22;51.13
76074;BME280;64776;42.636;24.358;2023-10-09T07:01:23;90892.00;;;11.40;49.90
76074;BME280;64776;42.636;24.358;2023-10-09T07:04:24;90891.13;;;11.58;50.55
76074;BME280;64776;42.636;24.358;2023-10-09T07:07:25;90896.38;;;11.52;47.78
76074;BME280;64776;42.636;24.358;2023-10-09T07:10:25;90899.47;;;11.36;49.21
76074;BME280;64776;42.636;24.358;2023-10-09T07:13:27;90913.56;;;11.36;48.63
76074;BME280;64776;42.636;24.358;2023-10-09T07:16:31;90913.94;;;11.44;48.64
76074;BME280;64776;42.636;24.358;2023-10-09T07:19:32;90918.03;;;11.54;48.56
76074;BME280;64776;42.636;24.358;2023-10-09T07:22:33;90917.03;;;11.52;48.51
76074;BME280;64776;42.636;24.358;2023-10-09T07:25:35;90909.38;;;11.59;47.90
76074;BME280;64776;42.636;24.358;2023-10-09T07:28:37;90915.34;;;11.78;47.85
76074;BME280;64776;42.636;24.358;2023-10-09T07:31:38;90920.97;;;11.94;54.60
76074;BME280;64776;42.636;24.358;2023-10-09T07:34:38;90909.53;;;11.94;57.75
76074;BME280;64776;42.636;24.358;2023-10-09T07:37:39;90912.59;;;11.87;57.84
76074;BME280;64776;42.636;24.358;2023-10-09T07:40:40;90911.94;;;11.92;57.75
76074;BME280;64776;42.636;24.358;2023-10-09T07:43:43;90913.31;;;12.02;57.29
76074;BME280;64776;42.636;24.358;2023-10-09T07:46:44;90910.84;;;12.13;57.52
76074;BME280;64776;42.636;24.358;2023-10-09T07:49:45;90915.81;;;12.20;56.69
76074;BME280;64776;42.636;24.358;2023-10-09T07:52:46;90914.69;;;12.26;56.25
76074;BME280;64776;42.636;24.358;2023-10-09T07:55:47;90917.47;;;12.47;56.25
76074;BME280;64776;42.636;24.358;2023-10-09T07:58:49;90915.22;;;12.60;56.15
76074;BME280;64776;42.636;24.358;2023-10-09T08:01:51;90909.22;;;12.65;55.71
76074;BME280;64776;42.636;24.358;2023-10-09T08:04:51;90904.22;;;12.58;56.39
76074;BME280;64776;42.636;24.358;2023-10-09T08:07:52;90901.19;;;12.65;55.90
76074;BME280;64776;42.636;24.358;2023-10-09T08:10:53;90896.44;;;12.74;56.16
76074;BME280;64776;42.636;24.358;2023-10-09T08:13:55;90900.91;;;12.97;55.87
76074;BME280;64776;42.636;24.358;2023-10-09T08:16:56;90903.88;;;13.20;55.12
76074;BME280;64776;42.636;24.358;2023-10-09T08:19:57;90903.19;;;13.04;54.64
76074;BME280;64776;42.636;24.358;2023-10-09T08:22:58;90907.06;;;13.03;55.09
76074;BME280;64776;42.636;24.358;2023-10-09T08:25:59;90906.78;;;13.16;54.28
76074;BME280;64776;42.636;24.358;2023-10-09T08:29:01;90910.75;;;13.21;54.34
76074;BME280;64776;42.636;24.358;2023-10-09T08:32:03;90916.22;;;13.12;53.97
76074;BME280;64776;42.636;24.358;2023-10-09T08:35:04;90915.09;;;13.38;53.67
76074;BME280;64776;42.636;24.358;2023-10-09T08:38:05;90915.94;;;13.30;53.93
76074;BME280;64776;42.636;24.358;2023-10-09T08:41:07;90920.38;;;13.53;52.94
76074;BME280;64776;42.636;24.358;2023-10-09T08:44:11;90913.00;;;13.68;52.13
76074;BME280;64776;42.636;24.358;2023-10-09T08:47:12;90907.91;;;13.70;51.70
76074;BME280;64776;42.636;24.358;2023-10-09T08:50:13;90905.03;;;13.99;51.69
76074;BME280;64776;42.636;24.358;2023-10-09T08:53:16;90905.38;;;14.12;50.72
76074;BME280;64776;42.636;24.358;2023-10-09T08:56:18;90895.81;;;14.31;50.15
76074;BME280;64776;42.636;24.358;2023-10-09T08:59:21;90894.59;;;14.63;48.51
76074;BME280;64776;42.636;24.358;2023-10-09T09:02:22;90894.69;;;14.75;47.63
76074;BME280;64776;42.636;24.358;2023-10-09T09:05:22;90897.97;;;14.90;47.42
76074;BME280;64776;42.636;24.358;2023-10-09T09:08:24;90894.38;;;15.04;47.20
76074;BME280;64776;42.636;24.358;2023-10-09T09:11:25;90892.28;;;15.24;47.20
76074;BME280;64776;42.636;24.358;2023-10-09T09:14:37;90891.66;;;15.46;45.75
76074;BME280;64776;42.636;24.358;2023-10-09T09:17:38;90884.38;;;15.10;45.61
76074;BME280;64776;42.636;24.358;2023-10-09T09:20:38;90882.97;;;15.25;44.63
76074;BME280;64776;42.636;24.358;2023-10-09T09:23:53;90870.97;;;15.21;43.27
76074;BME280;64776;42.636;24.358;2023-10-09T09:26:55;90883.53;;;14.87;42.60
76074;BME280;64776;42.636;24.358;2023-10-09T09:29:58;90881.28;;;15.22;35.83
76074;BME280;64776;42.636;24.358;2023-10-09T09:32:59;90878.00;;;15.55;35.17
76074;BME280;64776;42.636;24.358;2023-10-09T09:36:17;90870.78;;;15.89;33.29
76074;BME280;64776;42.636;24.358;2023-10-09T09:39:17;90868.34;;;16.24;34.84
76074;BME280;64776;42.636;24.358;2023-10-09T09:42:18;90869.84;;;15.38;33.72
76074;BME280;64776;42.636;24.358;2023-10-09T09:45:20;90865.06;;;15.65;35.14
76074;BME280;64776;42.636;24.358;2023-10-09T09:48:21;90876.66;;;16.09;33.42
76074;BME280;64776;42.636;24.358;2023-10-09T09:51:23;90869.09;;;16.13;32.85
76074;BME280;64776;42.636;24.358;2023-10-09T09:54:24;90868.13;;;16.33;33.31
76074;BME280;64776;42.636;24.358;2023-10-09T09:57:25;90855.41;;;16.34;32.49
76074;BME280;64776;42.636;24.358;2023-10-09T10:00:29;90846.34;;;16.48;33.14
76074;BME280;64776;42.636;24.358;2023-10-09T10:03:35;90838.25;;;15.92;32.71
76074;BME280;64776;42.636;24.358;2023-10-09T10:06:37;90840.22;;;16.30;32.96
76074;BME280;64776;42.636;24.358;2023-10-09T10:09:40;90847.81;;;16.71;32.30
76074;BME280;64776;42.636;24.358;2023-10-09T10:12:50;90835.00;;;17.04;31.87
76074;BME280;64776;42.636;24.358;2023-10-09T10:16:00;90832.66;;;17.42;31.79
76074;BME280;64776;42.636;24.358;2023-10-09T10:19:05;90816.56;;;17.82;30.88
76074;BME280;64776;42.636;24.358;2023-10-09T10:22:23;90821.69;;;17.86;29.96
76074;BME280;64776;42.636;24.358;2023-10-09T10:25:34;90815.03;;;17.93;30.37
76074;BME280;64776;42.636;24.358;2023-10-09T10:28:34;90807.50;;;17.74;29.93
76074;BME280;64776;42.636;24.358;2023-10-09T10:31:55;90796.47;;;17.72;31.63
76074;BME280;64776;42.636;24.358;2023-10-09T10:34:56;90793.06;;;17.66;31.56
76074;BME280;64776;42.636;24.358;2023-10-09T10:37:57;90800.44;;;17.71;31.16
76074;BME280;64776;42.636;24.358;2023-10-09T10:41:10;90790.13;;;17.70;31.38
76074;BME280;64776;42.636;24.358;2023-10-09T10:44:11;90800.66;;;17.73;30.86
76074;BME280;64776;42.636;24.358;2023-10-09T10:47:13;90794.00;;;17.74;31.02
76074;BME280;64776;42.636;24.358;2023-10-09T10:50:17;90784.50;;;17.62;31.32
76074;BME280;64776;42.636;24.358;2023-10-09T10:53:18;90772.72;;;17.65;28.56
76074;BME280;64776;42.636;24.358;2023-10-09T10:56:18;90772.03;;;17.59;28.50
76074;BME280;64776;42.636;24.358;2023-10-09T10:59:19;90764.38;;;17.69;28.36
76074;BME280;64776;42.636;24.358;2023-10-09T11:02:21;90759.72;;;17.69;29.49
76074;BME280;64776;42.636;24.358;2023-10-09T11:05:25;90752.47;;;17.88;30.16
76074;BME280;64776;42.636;24.358;2023-10-09T11:08:26;90739.06;;;18.37;29.63
76074;BME280;64776;42.636;24.358;2023-10-09T11:11:26;90754.88;;;18.22;30.56
76074;BME280;64776;42.636;24.358;2023-10-09T11:14:27;90745.63;;;17.82;31.38
76074;BME280;64776;42.636;24.358;2023-10-09T11:17:34;90747.13;;;17.31;30.86
76074;BME280;64776;42.636;24.358;2023-10-09T11:20:36;90744.59;;;17.55;30.89
76074;BME280;64776;42.636;24.358;2023-10-09T11:23:41;90744.72;;;17.68;30.88
76074;BME280;64776;42.636;24.358;2023-10-09T11:26:43;90743.28;;;18.03;29.31
76074;BME280;64776;42.636;24.358;2023-10-09T11:29:48;90744.38;;;18.18;30.53
76074;BME280;64776;42.636;24.358;2023-10-09T11:33:05;90737.16;;;18.32;28.95
76074;BME280;64776;42.636;24.358;2023-10-09T11:36:07;90724.56;;;18.34;28.26
76074;BME280;64776;42.636;24.358;2023-10-09T11:39:29;90720.44;;;18.57;27.70
76074;BME280;64776;42.636;24.358;2023-10-09T11:42:30;90716.06;;;17.95;28.51
76074;BME280;64776;42.636;24.358;2023-10-09T11:45:31;90707.38;;;17.37;29.90
76074;BME280;64776;42.636;24.358;2023-10-09T11:48:33;90691.28;;;17.97;30.36
76074;BME280;64776;42.636;24.358;2023-10-09T11:51:34;90699.41;;;18.50;27.33
76074;BME280;64776;42.636;24.358;2023-10-09T11:54:35;90697.19;;;18.49;27.75
76074;BME280;64776;42.636;24.358;2023-10-09T11:57:36;90700.56;;;18.01;26.25
76074;BME280;64776;42.636;24.358;2023-10-09T12:00:37;90697.84;;;18.01;28.54
76074;BME280;64776;42.636;24.358;2023-10-09T12:03:39;90701.44;;;17.85;27.09
76074;BME280;64776;42.636;24.358;2023-10-09T12:06:40;90702.63;;;17.89;26.96
76074;BME280;64776;42.636;24.358;2023-10-09T12:09:41;90675.47;;;17.76;27.82
76074;BME280;64776;42.636;24.358;2023-10-09T12:12:41;90669.81;;;18.34;28.04
76074;BME280;64776;42.636;24.358;2023-10-09T12:15:42;90686.78;;;18.58;27.64
76074;BME280;64776;42.636;24.358;2023-10-09T12:18:44;90678.16;;;18.60;25.92
76074;BME280;64776;42.636;24.358;2023-10-09T12:21:45;90678.84;;;18.66;26.22
76074;BME280;64776;42.636;24.358;2023-10-09T12:24:46;90674.28;;;19.17;25.46
76074;BME280;64776;42.636;24.358;2023-10-09T12:27:46;90667.78;;;19.25;26.35
76074;BME280;64776;42.636;24.358;2023-10-09T12:30:47;90664.06;;;18.19;27.84
76074;BME280;64776;42.636;24.358;2023-10-09T12:33:50;90666.53;;;18.46;27.23
76074;BME280;64776;42.636;24.358;2023-10-09T12:36:50;90662.09;;;17.60;28.18
76074;BME280;64776;42.636;24.358;2023-10-09T12:39:51;90655.16;;;18.00;27.05
76074;BME280;64776;42.636;24.358;2023-10-09T12:42:52;90660.25;;;17.79;27.01
76074;BME280;64776;42.636;24.358;2023-10-09T12:45:53;90651.47;;;18.51;26.94
76074;BME280;64776;42.636;24.358;2023-10-09T12:48:55;90654.56;;;18.36;24.82
76074;BME280;64776;42.636;24.358;2023-10-09T12:51:56;90663.28;;;18.72;24.51
76074;BME280;64776;42.636;24.358;2023-10-09T12:54:57;90662.03;;;18.25;24.28
76074;BME280;64776;42.636;24.358;2023-10-09T12:58:00;90659.50;;;17.78;24.22
76074;BME280;64776;42.636;24.358;2023-10-09T13:01:01;90653.28;;;17.89;24.14
76074;BME280;64776;42.636;24.358;2023-10-09T13:04:03;90648.69;;;18.08;24.21
76074;BME280;64776;42.636;24.358;2023-10-09T13:07:04;90645.28;;;18.56;23.46
76074;BME280;64776;42.636;24.358;2023-10-09T13:10:05;90648.88;;;18.40;23.65
76074;BME280;64776;42.636;24.358;2023-10-09T13:13:06;90632.31;;;18.73;23.70
76074;BME280;64776;42.636;24.358;2023-10-09T13:16:08;90636.63;;;19.00;24.01
76074;BME280;64776;42.636;24.358;2023-10-09T13:19:10;90634.69;;;18.58;23.24
76074;BME280;64776;42.636;24.358;2023-10-09T13:22:11;90634.25;;;18.54;23.90
76074;BME280;64776;42.636;24.358;2023-10-09T13:25:12;90631.16;;;18.44;24.13
76074;BME280;64776;42.636;24.358;2023-10-09T13:28:13;90618.38;;;18.21;24.23
76074;BME280;64776;42.636;24.358;2023-10-09T13:31:14;90611.41;;;18.74;23.92
76074;BME280;64776;42.636;24.358;2023-10-09T13:34:16;90613.09;;;18.77;23.69
76074;BME280;64776;42.636;24.358;2023-10-09T13:37:17;90607.78;;;18.71;23.67
76074;BME280;64776;42.636;24.358;2023-10-09T13:40:17;90601.41;;;18.87;23.55
76074;BME280;64776;42.636;24.358;2023-10-09T13:43:18;90604.47;;;18.78;23.06
76074;BME280;64776;42.636;24.358;2023-10-09T13:46:19;90603.56;;;18.51;23.11
76074;BME280;64776;42.636;24.358;2023-10-09T13:49:21;90595.47;;;18.27;23.38
76074;BME280;64776;42.636;24.358;2023-10-09T13:52:22;90591.25;;;18.56;23.38
76074;BME280;64776;42.636;24.358;2023-10-09T13:55:23;90590.88;;;18.65;23.62
76074;BME280;64776;42.636;24.358;2023-10-09T13:58:24;90592.25;;;18.29;24.02
76074;BME280;64776;42.636;24.358;2023-10-09T14:01:24;90600.88;;;17.44;24.04
76074;BME280;64776;42.636;24.358;2023-10-09T14:04:27;90596.88;;;17.26;24.96
76074;BME280;64776;42.636;24.358;2023-10-09T14:07:27;90605.69;;;16.91;25.77
76074;BME280;64776;42.636;24.358;2023-10-09T14:10:28;90598.03;;;16.44;26.81
76074;BME280;64776;42.636;24.358;2023-10-09T14:13:29;90600.25;;;16.45;26.55
76074;BME280;64776;42.636;24.358;2023-10-09T14:16:32;90590.69;;;16.50;27.58
76074;BME280;64776;42.636;24.358;2023-10-09T14:19:34;90588.25;;;16.52;27.69
76074;BME280;64776;42.636;24.358;2023-10-09T14:22:35;90589.91;;;16.60;27.61
76074;BME280;64776;42.636;24.358;2023-10-09T14:25:36;90590.44;;;16.53;27.51
76074;BME280;64776;42.636;24.358;2023-10-09T14:28:37;90586.81;;;16.40;27.08
76074;BME280;64776;42.636;24.358;2023-10-09T14:31:38;90586.50;;;16.49;27.42
76074;BME280;64776;42.636;24.358;2023-10-09T14:34:41;90586.75;;;16.51;27.47
76074;BME280;64776;42.636;24.358;2023-10-09T14:37:42;90575.03;;;16.43;27.80
76074;BME280;64776;42.636;24.358;2023-10-09T14:40:42;90573.53;;;16.53;27.99
76074;BME280;64776;42.636;24.358;2023-10-09T14:43:43;90576.50;;;16.44;27.29
76074;BME280;64776;42.636;24.358;2023-10-09T14:46:44;90579.19;;;16.44;27.71
76074;BME280;64776;42.636;24.358;2023-10-09T14:49:48;90572.72;;;16.11;26.91
76074;BME280;64776;42.636;24.358;2023-10-09T14:52:49;90570.59;;;15.82;27.83
76074;BME280;64776;42.636;24.358;2023-10-09T14:55:54;90581.84;;;15.81;27.42
76074;BME280;64776;42.636;24.358;2023-10-09T14:58:55;90581.34;;;15.77;27.91
76074;BME280;64776;42.636;24.358;2023-10-09T15:01:56;90583.84;;;15.58;27.58
76074;BME280;64776;42.636;24.358;2023-10-09T15:04:58;90584.84;;;15.50;27.77
76074;BME280;64776;42.636;24.358;2023-10-09T15:07:59;90577.97;;;15.37;28.13
76074;BME280;64776;42.636;24.358;2023-10-09T15:11:00;90577.97;;;15.37;29.08
76074;BME280;64776;42.636;24.358;2023-10-09T15:14:00;90585.53;;;15.17;29.91
76074;BME280;64776;42.636;24.358;2023-10-09T15:17:01;90579.44;;;15.00;31.77
76074;BME280;64776;42.636;24.358;2023-10-09T15:20:05;90582.09;;;14.78;32.90
76074;BME280;64776;42.636;24.358;2023-10-09T15:23:07;90583.31;;;14.77;33.81
76074;BME280;64776;42.636;24.358;2023-10-09T15:26:08;90590.88;;;14.67;34.95
76074;BME280;64776;42.636;24.358;2023-10-09T15:29:09;90588.38;;;14.47;34.84
76074;BME280;64776;42.636;24.358;2023-10-09T15:32:10;90595.59;;;14.24;35.83
76074;BME280;64776;42.636;24.358;2023-10-09T15:35:12;90592.50;;;13.89;36.66
76074;BME280;64776;42.636;24.358;2023-10-09T15:38:13;90588.50;;;13.68;37.33
76074;BME280;64776;42.636;24.358;2023-10-09T15:41:13;90591.81;;;13.52;38.32
76074;BME280;64776;42.636;24.358;2023-10-09T15:44:14;90590.59;;;13.47;37.99
76074;BME280;64776;42.636;24.358;2023-10-09T15:47:15;90590.63;;;13.22;37.00
76074;BME280;64776;42.636;24.358;2023-10-09T15:50:17;90587.28;;;13.01;38.17
76074;BME280;64776;42.636;24.358;2023-10-09T15:53:20;90592.94;;;12.77;39.09